Time;durP1;ratioP1;P1;durP2;ratioP2;P2;SDS_P1;SDS_P2;PMS_P1;PMS_P2;Temp;Humidity;BMP_temperature;BMP_pressure;BME280_temperature;BME280_humidity;BME280_pressure;Samples;Min_cycle;Max_cycle;Signal;HPM_P1;HPM_P2
2022/11/02 00:05:25;;;;;;;2.38;0.98;;;;;;;9.29;100.00;98759.13;15272717;19;20014;-60
2022/11/02 00:10:50;;;;;;;3.33;1.00;;;;;;;9.20;100.00;98758.19;15269604;19;20057;-57
2022/11/02 00:16:19;;;;;;;3.72;1.15;;;;;;;9.06;100.00;98764.00;15272731;19;20025;-55
2022/11/02 00:21:46;;;;;;;5.57;1.30;;;;;;;8.97;100.00;98762.16;15264677;19;20486;-56
2022/11/02 00:27:11;;;;;;;5.15;1.40;;;;;;;8.88;100.00;98780.81;15273113;19;20348;-53
2022/11/02 00:32:35;;;;;;;4.05;1.30;;;;;;;8.79;100.00;98770.94;15267771;19;20033;-53
2022/11/02 00:38:04;;;;;;;4.50;1.40;;;;;;;8.70;100.00;98779.84;15271724;19;20022;-55
2022/11/02 00:43:28;;;;;;;3.20;1.30;;;;;;;8.57;100.00;98772.91;15268826;19;20014;-52
2022/11/02 00:48:54;;;;;;;3.58;1.45;;;;;;;8.53;100.00;98786.75;15270506;19;20028;-60
2022/11/02 00:54:21;;;;;;;2.30;1.20;;;;;;;8.47;100.00;98780.06;15258725;19;20081;-55
2022/11/02 00:59:47;;;;;;;8.50;1.55;;;;;;;8.40;100.00;98787.81;15270876;19;20007;-56
2022/11/02 01:05:13;;;;;;;3.40;1.33;;;;;;;8.36;100.00;98783.72;15268794;19;20010;-57
2022/11/02 01:10:41;;;;;;;3.88;1.40;;;;;;;8.30;100.00;98787.78;15267495;19;20028;-56
2022/11/02 01:16:06;;;;;;;4.78;1.38;;;;;;;8.23;100.00;98786.66;15268185;19;20094;-58
2022/11/02 01:21:33;;;;;;;3.28;1.10;;;;;;;8.17;100.00;98789.91;15267166;19;20014;-57
2022/11/02 01:27:00;;;;;;;3.72;1.40;;;;;;;8.11;100.00;98790.44;15278713;19;20470;-51
2022/11/02 01:32:24;;;;;;;4.32;1.40;;;;;;;8.01;100.00;98775.16;15277315;19;20015;-55
2022/11/02 01:37:48;;;;;;;4.10;1.40;;;;;;;7.94;100.00;98765.94;15286378;19;20006;-52
2022/11/02 01:43:33;;;;;;;2.80;1.30;;;;;;;7.85;100.00;98769.44;15276390;19;20082;-54
2022/11/02 01:49:02;;;;;;;3.30;1.20;;;;;;;7.74;100.00;98764.19;15283675;19;20025;-49
2022/11/02 01:54:30;;;;;;;4.22;1.40;;;;;;;7.70;100.00;98761.75;15275926;19;20018;-50
2022/11/02 02:00:01;;;;;;;4.07;1.40;;;;;;;7.71;100.00;98774.19;15275571;19;20014;-54
2022/11/02 02:05:30;;;;;;;4.43;1.40;;;;;;;7.66;100.00;98779.13;15280640;19;20027;-51
2022/11/02 02:11:00;;;;;;;5.28;1.30;;;;;;;7.64;100.00;98765.00;15277846;19;20237;-53
2022/11/02 02:16:34;;;;;;;3.70;1.30;;;;;;;7.59;100.00;98756.47;15280859;19;20010;-51
2022/11/02 02:22:22;;;;;;;5.35;1.50;;;;;;;7.64;100.00;98761.47;15275845;19;20035;-53
2022/11/02 02:28:12;;;;;;;4.30;1.33;;;;;;;7.67;100.00;98753.13;15278473;19;20010;-52
2022/11/02 02:33:48;;;;;;;3.85;1.10;;;;;;;7.68;100.00;98744.13;15266915;19;20022;-50
2022/11/02 02:39:19;;;;;;;3.70;1.20;;;;;;;7.74;100.00;98740.03;15280214;19;20042;-50
2022/11/02 02:44:52;;;;;;;4.00;1.10;;;;;;;7.80;100.00;98736.84;15271974;19;20777;-50
2022/11/02 02:50:20;;;;;;;4.15;1.15;;;;;;;7.85;100.00;98734.56;15276526;19;20011;-52
2022/11/02 02:55:50;;;;;;;6.45;1.20;;;;;;;7.87;100.00;98737.97;15279436;19;20097;-53
2022/11/02 03:01:19;;;;;;;4.78;1.23;;;;;;;7.84;100.00;98732.88;15274406;19;20014;-56
2022/11/02 03:06:45;;;;;;;4.88;1.27;;;;;;;7.80;100.00;98726.09;15278938;19;20018;-52
2022/11/02 03:12:23;;;;;;;4.18;1.20;;;;;;;7.75;100.00;98721.16;15271239;19;20026;-49
2022/11/02 03:17:58;;;;;;;4.43;1.30;;;;;;;7.71;100.00;98733.97;15277021;19;20014;-52
2022/11/02 03:23:28;;;;;;;6.35;1.50;;;;;;;7.65;100.00;98734.50;15271548;19;20010;-57
2022/11/02 03:29:05;;;;;;;5.57;1.38;;;;;;;7.61;100.00;98741.13;15277247;19;20011;-54
2022/11/02 03:34:47;;;;;;;7.20;1.60;;;;;;;7.61;100.00;98733.06;15261545;19;20015;-54
2022/11/02 03:40:17;;;;;;;4.67;1.30;;;;;;;7.63;100.00;98747.19;15275958;19;20014;-54
2022/11/02 03:45:48;;;;;;;3.67;1.17;;;;;;;7.61;100.00;98727.72;15271677;19;20800;-55
2022/11/02 03:51:20;;;;;;;5.85;1.30;;;;;;;7.61;100.00;98733.06;15267852;19;20015;-58
2022/11/02 03:56:48;;;;;;;5.82;1.40;;;;;;;7.60;100.00;98747.47;15276169;19;20022;-54
2022/11/02 04:02:15;;;;;;;7.05;1.42;;;;;;;7.68;100.00;98750.34;15269335;19;20014;-55
2022/11/02 04:30:42;;;;;;;4.22;1.27;;;;;;;7.77;100.00;98750.50;15269725;19;20013;-50
2022/11/02 04:36:10;;;;;;;3.75;1.20;;;;;;;7.75;100.00;98755.16;15272579;19;20018;-50
2022/11/02 04:41:44;;;;;;;5.10;1.35;;;;;;;7.71;100.00;98758.09;15262734;19;20043;-50
2022/11/02 04:47:15;;;;;;;4.10;0.98;;;;;;;7.61;100.00;98749.16;15268754;19;20018;-49
2022/11/02 04:52:39;;;;;;;7.78;1.42;;;;;;;7.50;100.00;98738.53;15262300;19;20021;-51
2022/11/02 04:58:07;;;;;;;5.60;1.48;;;;;;;7.43;100.00;98746.25;15267625;19;20019;-52
2022/11/02 05:03:32;;;;;;;3.97;1.30;;;;;;;7.36;100.00;98739.75;15264143;19;20018;-52
2022/11/02 05:08:57;;;;;;;5.25;1.38;;;;;;;7.40;100.00;98739.34;15270140;19;20495;-54
2022/11/02 05:14:29;;;;;;;5.43;1.33;;;;;;;7.44;100.00;98736.41;15258316;19;20019;-55
2022/11/02 05:19:54;;;;;;;6.60;1.40;;;;;;;7.49;100.00;98744.88;15270318;19;20018;-56
2022/11/02 05:25:20;;;;;;;5.72;1.40;;;;;;;7.47;100.00;98738.78;15268356;19;20031;-56
2022/11/02 05:30:47;;;;;;;8.57;1.25;;;;;;;7.40;100.00;98742.00;15261168;19;20483;-59
2022/11/02 05:36:15;;;;;;;4.72;1.30;;;;;;;7.36;100.00;98735.22;15259182;19;20434;-60
2022/11/02 05:41:39;;;;;;;6.80;1.60;;;;;;;7.28;100.00;98737.72;15265211;19;20018;-59
2022/11/02 05:47:07;;;;;;;4.88;1.33;;;;;;;7.32;100.00;98751.69;15260785;19;20022;-60
2022/11/02 05:52:31;;;;;;;5.97;1.48;;;;;;;7.39;100.00;98740.31;15266881;19;20470;-57
2022/11/02 05:57:59;;;;;;;4.90;1.45;;;;;;;7.39;100.00;98743.00;15272524;19;20039;-58
2022/11/02 06:03:26;;;;;;;5.90;1.40;;;;;;;7.38;100.00;98749.34;15282957;19;20054;-61
2022/11/02 06:08:51;;;;;;;7.93;1.55;;;;;;;7.37;100.00;98763.72;15306694;19;20022;-61
2022/11/02 06:14:22;;;;;;;6.00;1.40;;;;;;;7.37;100.00;98753.00;15275193;19;20732;-61
2022/11/02 06:19:50;;;;;;;5.97;1.60;;;;;;;7.37;100.00;98755.69;15274618;19;20031;-62
2022/11/02 06:25:16;;;;;;;5.00;1.70;;;;;;;7.50;100.00;98776.06;15278598;19;20021;-61
2022/11/02 06:30:40;;;;;;;5.60;1.40;;;;;;;7.48;100.00;98791.41;15276940;19;20019;-62
2022/11/02 06:36:08;;;;;;;3.20;1.15;;;;;;;7.48;100.00;98803.00;15275434;19;20486;-61
2022/11/02 06:41:33;;;;;;;5.55;1.50;;;;;;;7.49;100.00;98794.00;15276401;19;20022;-61
2022/11/02 06:46:57;;;;;;;6.35;1.55;;;;;;;7.52;100.00;98808.94;15279526;19;20021;-60
2022/11/02 06:52:25;;;;;;;6.20;1.80;;;;;;;7.56;100.00;98818.44;15269576;19;20034;-59
2022/11/02 06:57:50;;;;;;;7.47;2.58;;;;;;;7.61;100.00;98823.41;15279082;19;20538;-60
2022/11/02 07:03:17;;;;;;;5.47;1.58;;;;;;;7.72;100.00;98837.56;15272974;19;20014;-61
2022/11/02 07:08:44;;;;;;;6.47;1.60;;;;;;;7.88;100.00;98836.25;15279284;19;20018;-60
2022/11/02 07:14:08;;;;;;;5.32;1.48;;;;;;;7.99;100.00;98835.31;15274454;19;20021;-59
2022/11/02 07:19:32;;;;;;;6.68;1.65;;;;;;;8.11;100.00;98841.44;15278487;19;20035;-60
2022/11/02 07:25:00;;;;;;;4.28;1.42;;;;;;;8.23;100.00;98848.41;15271784;19;20034;-60
2022/11/02 07:30:25;;;;;;;6.80;1.60;;;;;;;8.42;100.00;98852.13;15279876;19;20010;-60
2022/11/02 07:35:57;;;;;;;5.60;1.58;;;;;;;8.55;100.00;98852.75;15273656;19;20015;-59
2022/11/02 07:41:24;;;;;;;5.70;1.53;;;;;;;8.75;100.00;98855.50;15275745;19;20022;-60
2022/11/02 07:46:49;;;;;;;5.63;1.67;;;;;;;8.88;100.00;98855.22;15278335;19;20029;-60
2022/11/02 07:52:13;;;;;;;6.20;1.70;;;;;;;9.07;100.00;98849.84;15271916;19;20019;-61
2022/11/02 07:57:42;;;;;;;6.07;1.60;;;;;;;9.15;100.00;98859.91;15278134;19;20018;-60
2022/11/02 08:03:09;;;;;;;6.00;1.60;;;;;;;9.27;100.00;98857.06;15272672;19;20483;-60
2022/11/02 08:08:34;;;;;;;5.20;1.40;;;;;;;9.34;100.00;98855.53;15276924;19;20026;-60
2022/11/02 08:14:01;;;;;;;7.30;1.48;;;;;;;9.35;100.00;98866.13;15270481;19;20035;-60
2022/11/02 08:19:26;;;;;;;8.43;1.85;;;;;;;9.44;100.00;98866.25;15272390;19;20018;-62
2022/11/02 08:24:50;;;;;;;6.93;1.65;;;;;;;9.58;100.00;98862.28;15263244;19;20014;-61
2022/11/02 08:30:19;;;;;;;6.15;1.63;;;;;;;9.76;100.00;98860.53;15271386;19;20022;-59
2022/11/02 08:35:52;;;;;;;6.38;1.83;;;;;;;9.98;100.00;98866.56;15267536;19;20018;-60
2022/11/02 08:41:16;;;;;;;4.03;1.63;;;;;;;10.23;100.00;98862.34;15268424;19;20483;-59
2022/11/02 08:46:44;;;;;;;4.95;1.42;;;;;;;10.40;100.00;98858.09;15270117;19;20018;-60
2022/11/02 08:52:09;;;;;;;6.90;1.80;;;;;;;10.62;100.00;98856.00;15268134;19;20348;-61
2022/11/02 08:57:33;;;;;;;4.45;1.48;;;;;;;10.86;100.00;98859.94;15266239;19;20022;-61
2022/11/02 09:03:06;;;;;;;4.65;1.40;;;;;;;11.18;100.00;98850.47;15267616;19;20082;-59
2022/11/02 09:08:30;;;;;;;4.13;1.60;;;;;;;11.33;100.00;98857.03;15271622;19;20017;-59
2022/11/02 09:13:56;;;;;;;4.07;1.40;;;;;;;11.38;100.00;98861.97;15265717;19;20018;-60
2022/11/02 09:19:23;;;;;;;3.92;1.40;;;;;;;11.41;100.00;98857.09;15270315;19;20018;-61
2022/11/02 09:24:54;;;;;;;5.15;1.20;;;;;;;11.59;100.00;98858.06;15263781;19;20385;-61
2022/11/02 09:30:25;;;;;;;3.08;1.15;;;;;;;11.66;100.00;98853.72;15261221;19;20039;-60
2022/11/02 09:35:59;;;;;;;4.57;1.30;;;;;;;11.80;100.00;98850.44;15264212;19;20511;-57
2022/11/02 09:41:28;;;;;;;4.00;1.20;;;;;;;11.93;100.00;98860.84;15267004;19;20609;-57
2022/11/02 09:46:55;;;;;;;4.78;1.52;;;;;;;12.07;100.00;98848.63;15281432;19;20019;-59
2022/11/02 09:52:45;;;;;;;5.35;1.33;;;;;;;12.17;100.00;98856.63;15276316;19;20019;-58
2022/11/02 09:58:13;;;;;;;4.47;1.40;;;;;;;12.28;100.00;98866.28;15283801;19;20035;-60
2022/11/02 10:03:49;;;;;;;4.78;1.25;;;;;;;12.35;100.00;98861.91;15272131;19;20035;-56
2022/11/02 10:09:23;;;;;;;3.88;1.00;;;;;;;12.37;100.00;98856.38;15282115;19;20028;-58
2022/11/02 10:14:57;;;;;;;4.70;1.17;;;;;;;12.37;100.00;98867.19;15276540;19;20025;-57
2022/11/02 10:20:30;;;;;;;4.28;1.33;;;;;;;12.53;100.00;98866.41;15280342;19;20012;-56
2022/11/02 10:25:58;;;;;;;3.13;1.20;;;;;;;12.85;100.00;98865.66;15280729;19;20013;-56
2022/11/02 10:31:30;;;;;;;4.25;1.20;;;;;;;12.90;100.00;98867.88;15278281;19;20464;-60
2022/11/02 10:37:07;;;;;;;2.58;1.10;;;;;;;12.78;100.00;98878.13;15271100;19;20025;-60
2022/11/02 10:43:00;;;;;;;3.22;1.10;;;;;;;12.99;100.00;98885.81;15276515;19;20026;-59
2022/11/02 10:48:34;;;;;;;3.15;1.08;;;;;;;12.81;100.00;98877.81;15278677;19;20014;-58
2022/11/02 10:54:01;;;;;;;4.22;1.33;;;;;;;12.94;100.00;98893.56;15275224;19;20023;-57
2022/11/02 10:59:28;;;;;;;3.25;0.98;;;;;;;12.97;100.00;98878.88;15279199;19;20086;-55
2022/11/02 11:04:52;;;;;;;4.07;1.40;;;;;;;12.97;100.00;98895.09;14763924;19;9999915;-60
2022/11/02 11:10:18;;;;;;;4.10;1.10;;;;;;;12.80;100.00;98905.84;15272940;19;20601;-59
2022/11/02 11:15:45;;;;;;;4.43;1.40;;;;;;;12.81;100.00;98894.03;15275168;19;20006;-58
2022/11/02 11:21:10;;;;;;;4.20;1.40;;;;;;;13.11;100.00;98897.16;15275095;19;20010;-57
2022/11/02 11:26:38;;;;;;;4.07;1.52;;;;;;;13.40;100.00;98880.50;15277917;19;20078;-61
2022/11/02 11:32:06;;;;;;;4.50;1.35;;;;;;;13.55;100.00;98886.06;15275621;19;20025;-59
2022/11/02 11:37:32;;;;;;;5.80;1.50;;;;;;;13.60;100.00;98884.72;15273723;19;20110;-59
2022/11/02 11:42:58;;;;;;;5.93;1.30;;;;;;;13.66;100.00;98889.47;15270079;19;20014;-58
2022/11/02 11:48:40;;;;;;;2.60;1.13;;;;;;;13.89;100.00;98877.94;15274314;19;20018;-60
2022/11/02 11:54:23;;;;;;;2.50;1.02;;;;;;;13.98;100.00;98882.31;15270805;19;20021;-61
2022/11/02 11:59:57;;;;;;;3.08;1.08;;;;;;;13.96;100.00;98874.38;15274697;19;20504;-59
2022/11/02 12:05:26;;;;;;;5.85;1.30;;;;;;;13.91;100.00;98874.03;15273294;19;20022;-59
2022/11/02 12:11:09;;;;;;;4.82;1.17;;;;;;;13.80;100.00;98864.41;15268805;19;20375;-61
2022/11/02 12:16:54;;;;;;;4.68;1.30;;;;;;;13.67;100.00;98885.75;15267415;19;20335;-61
2022/11/02 12:22:31;;;;;;;7.05;1.60;;;;;;;13.68;100.00;98873.91;15269357;19;20022;-58
2022/11/02 12:28:03;;;;;;;5.82;1.58;;;;;;;13.85;100.00;98864.72;15269358;19;20025;-61
2022/11/02 12:33:43;;;;;;;3.73;1.27;;;;;;;14.00;100.00;98864.03;15269076;19;20014;-55
2022/11/02 12:39:22;;;;;;;4.90;1.40;;;;;;;14.09;100.00;98848.59;15273556;19;20079;-55
2022/11/02 12:44:59;;;;;;;3.40;1.20;;;;;;;14.09;100.00;98865.69;15262976;19;20453;-56
2022/11/02 12:50:32;;;;;;;4.68;1.30;;;;;;;14.06;100.00;98840.81;15268133;19;20018;-60
2022/11/02 12:56:04;;;;;;;3.22;0.90;;;;;;;13.99;100.00;98835.25;15267149;19;20025;-58
2022/11/02 13:01:33;;;;;;;4.25;1.30;;;;;;;14.04;100.00;98843.72;15268522;19;20011;-58
2022/11/02 13:07:02;;;;;;;2.63;0.90;;;;;;;13.98;100.00;98833.53;15270634;19;20643;-61
2022/11/02 13:12:34;;;;;;;3.25;1.10;;;;;;;14.02;100.00;98835.72;15267452;19;20015;-59
2022/11/02 13:18:02;;;;;;;4.37;1.00;;;;;;;14.07;100.00;98832.50;15262737;19;20015;-58
2022/11/02 13:23:36;;;;;;;2.63;0.90;;;;;;;14.00;100.00;98856.72;15294375;19;20033;-58
2022/11/02 13:29:07;;;;;;;3.63;1.15;;;;;;;14.09;100.00;98852.16;15296934;19;20033;-56
2022/11/02 13:34:44;;;;;;;4.03;0.93;;;;;;;14.05;100.00;98839.13;15292115;19;20021;-58
2022/11/02 13:40:20;;;;;;;3.05;1.00;;;;;;;14.19;100.00;98846.53;15299151;19;20023;-61
2022/11/02 13:45:59;;;;;;;3.08;1.13;;;;;;;14.28;100.00;98845.47;15295280;19;20029;-59
2022/11/02 13:51:35;;;;;;;2.50;1.00;;;;;;;14.37;100.00;98854.44;15291301;19;20014;-60
2022/11/02 13:57:01;;;;;;;2.50;0.93;;;;;;;14.25;100.00;98855.84;15295915;19;20027;-60
2022/11/02 14:02:32;;;;;;;3.33;0.82;;;;;;;14.12;100.00;98846.38;15292736;19;20019;-58
2022/11/02 14:07:56;;;;;;;3.35;1.00;;;;;;;14.25;100.00;98845.81;15296541;19;20018;-59
2022/11/02 14:13:57;;;;;;;3.17;0.98;;;;;;;14.13;100.00;98863.47;15292928;19;20471;-57
2022/11/02 14:19:30;;;;;;;1.93;0.83;;;;;;;14.10;100.00;98870.09;15298073;19;20039;-59
2022/11/02 14:25:16;;;;;;;3.15;1.10;;;;;;;14.01;100.00;98860.31;15285421;19;20033;-58
2022/11/02 14:30:54;;;;;;;3.20;1.10;;;;;;;13.99;100.00;98863.16;15286082;19;20022;-58
2022/11/02 14:36:48;;;;;;;4.75;1.10;;;;;;;13.91;100.00;98878.59;15274142;19;20023;-57
2022/11/02 14:42:27;;;;;;;3.22;1.00;;;;;;;13.79;100.00;98878.97;15275701;19;20022;-62
2022/11/02 14:47:51;;;;;;;4.63;1.00;;;;;;;13.64;100.00;98894.19;15280636;19;20029;-59
2022/11/02 14:53:27;;;;;;;3.80;1.15;;;;;;;13.48;100.00;98912.13;15266823;19;20019;-61
2022/11/02 14:59:00;;;;;;;2.30;0.90;;;;;;;13.32;100.00;98899.38;15275756;19;20011;-58
2022/11/02 15:04:28;;;;;;;2.28;0.90;;;;;;;13.23;100.00;98895.81;15266814;19;20101;-59
2022/11/02 15:10:05;;;;;;;3.42;1.17;;;;;;;13.06;100.00;98902.22;15274515;19;20471;-60
2022/11/02 15:15:34;;;;;;;3.95;1.10;;;;;;;12.86;100.00;98917.88;15273864;19;20380;-60
2022/11/02 15:21:28;;;;;;;2.33;0.93;;;;;;;12.62;100.00;98908.66;15275446;19;20025;-59
2022/11/02 15:27:00;;;;;;;5.22;1.23;;;;;;;12.31;100.00;98918.13;15275138;19;20025;-54
2022/11/02 15:32:28;;;;;;;3.92;0.90;;;;;;;12.04;100.00;98921.84;15275504;19;20114;-57
2022/11/02 15:37:55;;;;;;;3.08;0.90;;;;;;;11.84;100.00;98927.44;15275691;19;20015;-58
2022/11/02 15:44:08;;;;;;;4.60;1.00;;;;;;;11.66;100.00;98923.91;15271291;19;20019;-57
2022/11/02 15:49:53;;;;;;;3.45;1.23;;;;;;;11.54;100.00;98917.91;15276358;19;20025;-60
2022/11/02 15:55:27;;;;;;;2.65;1.00;;;;;;;11.41;100.00;98932.63;15275315;19;20023;-59
2022/11/02 16:01:13;;;;;;;4.05;1.08;;;;;;;11.29;100.00;98925.75;15267387;19;20023;-59
2022/11/02 16:06:39;;;;;;;6.65;1.30;;;;;;;11.21;100.00;98926.53;15276080;19;20030;-58
2022/11/02 16:12:12;;;;;;;2.92;1.38;;;;;;;11.12;100.00;98926.59;15274493;19;20479;-58
2022/11/02 16:17:39;;;;;;;3.15;1.13;;;;;;;11.03;100.00;98926.50;15274741;19;20021;-59
2022/11/02 16:23:06;;;;;;;3.65;1.60;;;;;;;10.97;100.00;98926.25;15273390;19;20024;-59
2022/11/02 16:28:33;;;;;;;5.65;2.35;;;;;;;10.83;100.00;98935.72;15274856;19;20024;-58
2022/11/02 16:34:03;;;;;;;5.28;2.03;;;;;;;10.68;100.00;98940.75;15267091;19;20591;-59
2022/11/02 16:39:38;;;;;;;3.40;1.30;;;;;;;10.52;100.00;98942.25;15273759;19;20022;-57
2022/11/02 16:45:03;;;;;;;3.92;1.20;;;;;;;10.36;100.00;98952.75;15268251;19;20033;-58
2022/11/02 16:50:32;;;;;;;5.05;1.30;;;;;;;10.20;100.00;98947.97;15268836;19;20058;-57
2022/11/02 16:56:01;;;;;;;6.07;3.88;;;;;;;10.13;100.00;98948.56;15268949;19;20018;-59
2022/11/02 17:01:30;;;;;;;4.97;1.80;;;;;;;10.08;100.00;98950.84;15267840;19;20015;-61
2022/11/02 17:07:01;;;;;;;3.05;1.17;;;;;;;10.00;100.00;98961.50;15263232;19;20359;-58
2022/11/02 17:12:26;;;;;;;4.60;1.30;;;;;;;9.91;100.00;98957.81;15266845;19;20018;-58
2022/11/02 17:17:51;;;;;;;3.63;1.10;;;;;;;9.79;100.00;98959.81;15266570;19;20372;-59
2022/11/02 17:23:38;;;;;;;4.15;1.33;;;;;;;9.73;100.00;98965.75;15242114;19;20051;-58
2022/11/02 17:29:04;;;;;;;6.35;1.58;;;;;;;9.62;100.00;98976.66;15269387;19;20721;-58
2022/11/02 17:34:36;;;;;;;3.42;1.60;;;;;;;9.39;100.00;98991.25;15245075;19;20030;-51
2022/11/02 17:40:05;;;;;;;4.53;1.70;;;;;;;9.23;100.00;98986.41;15267606;19;20014;-54
2022/11/02 17:45:36;;;;;;;5.18;1.30;;;;;;;9.09;100.00;98981.44;15266189;19;20381;-54
2022/11/02 17:51:01;;;;;;;3.10;1.30;;;;;;;8.98;100.00;98977.00;15266112;19;20006;-52
2022/11/02 17:56:28;;;;;;;4.82;1.30;;;;;;;8.89;100.00;98973.31;15263157;19;20431;-55
2022/11/02 18:01:53;;;;;;;3.58;1.15;;;;;;;8.76;100.00;98975.41;15263594;19;20018;-51
2022/11/02 18:07:18;;;;;;;5.45;1.55;;;;;;;8.77;100.00;98971.72;15269584;19;20039;-53
2022/11/02 18:12:51;;;;;;;3.65;1.55;;;;;;;8.75;100.00;98977.22;15274603;19;20023;-51
2022/11/02 18:18:22;;;;;;;4.22;1.80;;;;;;;8.73;100.00;98983.72;15275835;19;20014;-53
2022/11/02 18:23:47;;;;;;;4.15;1.50;;;;;;;8.70;100.00;98986.69;15272370;19;20018;-51
2022/11/02 18:29:14;;;;;;;4.57;1.30;;;;;;;8.67;100.00;98968.13;15276432;19;20043;-51
2022/11/02 18:34:45;;;;;;;3.50;1.20;;;;;;;8.63;100.00;98949.63;15270128;19;20015;-54
2022/11/02 18:40:13;;;;;;;3.25;1.33;;;;;;;8.58;100.00;98965.28;15271535;19;20503;-54
2022/11/02 18:45:40;;;;;;;4.45;1.60;;;;;;;8.52;100.00;98965.84;15272179;19;20529;-52
2022/11/02 18:51:06;;;;;;;4.68;1.60;;;;;;;8.44;100.00;98957.56;15274209;19;20014;-55
2022/11/02 18:56:30;;;;;;;4.82;1.95;;;;;;;8.39;100.00;98963.34;15275976;19;20017;-52
2022/11/02 19:01:57;;;;;;;4.45;1.50;;;;;;;8.33;100.00;98958.50;15274499;19;20014;-52
2022/11/02 19:13:00;;;;;;;3.38;1.40;;;;;;;8.18;100.00;98949.94;15266296;19;20014;-55
2022/11/02 19:18:27;;;;;;;4.65;1.40;;;;;;;8.10;100.00;98947.94;15264319;19;20022;-53
2022/11/02 19:23:52;;;;;;;3.65;1.23;;;;;;;8.05;100.00;98943.94;15265530;19;20041;-55
2022/11/02 19:29:17;;;;;;;4.30;1.30;;;;;;;7.98;100.00;98943.63;15268980;19;20026;-52
2022/11/02 19:34:51;;;;;;;4.07;1.30;;;;;;;7.84;100.00;98952.84;15270404;19;20023;-56
2022/11/02 19:40:16;;;;;;;5.03;1.42;;;;;;;7.67;100.00;98946.22;15273559;19;20088;-53
2022/11/02 19:45:41;;;;;;;3.75;1.30;;;;;;;7.61;100.00;98957.47;15264701;19;20018;-55
2022/11/02 19:51:10;;;;;;;3.78;1.42;;;;;;;7.58;100.00;98950.56;15271398;19;20019;-56
2022/11/02 19:56:38;;;;;;;3.47;1.30;;;;;;;7.54;100.00;98959.81;15270560;19;20010;-53
2022/11/02 20:02:03;;;;;;;4.30;1.42;;;;;;;7.44;100.00;98966.94;15268254;19;20025;-56
2022/11/02 20:07:32;;;;;;;4.38;1.42;;;;;;;7.37;100.00;98975.47;15271402;19;20018;-52
2022/11/02 20:12:56;;;;;;;4.63;1.60;;;;;;;7.37;100.00;98980.84;15268651;19;20029;-54
2022/11/02 20:18:21;;;;;;;3.10;1.60;;;;;;;7.34;100.00;98970.41;15262948;19;20042;-50
2022/11/02 20:23:49;;;;;;;5.45;1.70;;;;;;;7.29;100.00;98977.94;15267801;19;20018;-49
2022/11/02 20:29:14;;;;;;;4.47;1.65;;;;;;;7.28;100.00;98972.72;15267054;19;20015;-52
2022/11/02 20:34:45;;;;;;;3.30;1.60;;;;;;;7.22;100.00;98984.81;15265488;19;20468;-51
2022/11/02 20:40:14;;;;;;;4.20;1.63;;;;;;;7.18;100.00;98978.81;15264843;19;20030;-52
2022/11/02 20:45:39;;;;;;;7.70;1.77;;;;;;;7.12;100.00;98973.97;15268103;19;20023;-48
2022/11/02 20:51:04;;;;;;;4.78;1.65;;;;;;;7.13;100.00;98980.19;15262755;19;20017;-50
2022/11/02 20:56:32;;;;;;;4.68;1.30;;;;;;;7.08;100.00;98975.19;15266847;19;20013;-53
2022/11/02 21:01:57;;;;;;;4.10;1.80;;;;;;;7.02;100.00;98973.03;15263830;19;20021;-53
2022/11/02 21:07:15;;;;;;;2.92;1.40;;;;;;;6.93;100.00;98969.25;15268539;19;20014;-52
2022/11/02 21:18:21;;;;;;;5.07;1.48;;;;;;;6.79;100.00;98952.47;15267598;19;20054;-53
2022/11/02 21:23:46;;;;;;;5.07;1.45;;;;;;;6.76;100.00;98959.91;15258694;19;20077;-52
2022/11/02 21:29:14;;;;;;;7.07;1.75;;;;;;;6.75;100.00;98960.88;15268218;19;20021;-55
2022/11/02 21:34:46;;;;;;;4.95;1.40;;;;;;;6.73;100.00;98954.81;15262791;19;20471;-54
2022/11/02 21:40:12;;;;;;;6.63;1.60;;;;;;;6.69;100.00;98951.53;15269204;19;20014;-52
2022/11/02 21:45:39;;;;;;;6.32;1.65;;;;;;;6.69;100.00;98954.19;15282292;19;20363;-55
2022/11/02 21:51:06;;;;;;;3.58;1.23;;;;;;;6.63;100.00;98947.50;15282652;19;20017;-55
2022/11/02 21:56:34;;;;;;;5.32;1.83;;;;;;;6.60;100.00;98949.59;15274043;19;20021;-55
2022/11/02 22:02:02;;;;;;;5.47;1.70;;;;;;;6.59;100.00;98939.84;15280245;19;20014;-53
2022/11/02 22:07:26;;;;;;;6.68;1.90;;;;;;;6.59;100.00;98942.53;15279645;19;20029;-52
2022/11/02 22:18:56;;;;;;;4.28;1.52;;;;;;;6.54;100.00;98932.19;15276176;19;20017;-54
2022/11/02 22:24:21;;;;;;;4.78;1.50;;;;;;;6.53;100.00;98934.97;15275373;19;20038;-52
2022/11/02 22:29:45;;;;;;;3.55;1.30;;;;;;;6.45;100.00;98935.63;15275768;19;20476;-53
2022/11/02 22:35:19;;;;;;;5.72;1.42;;;;;;;6.38;100.00;98947.75;15273698;19;20018;-53
2022/11/02 22:40:44;;;;;;;5.00;1.50;;;;;;;6.30;100.00;98943.88;15275078;19;20030;-55
2022/11/02 22:46:10;;;;;;;4.90;1.40;;;;;;;6.28;100.00;98937.78;15277377;19;20014;-52
2022/11/02 22:51:40;;;;;;;5.15;1.30;;;;;;;6.24;100.00;98930.13;15274687;19;20026;-53
2022/11/02 22:57:04;;;;;;;4.82;1.67;;;;;;;6.17;100.00;98929.75;15274442;19;20026;-53
2022/11/02 23:02:29;;;;;;;5.05;1.50;;;;;;;6.12;100.00;98930.13;15274094;19;20022;-51
2022/11/02 23:07:56;;;;;;;6.65;1.60;;;;;;;6.07;100.00;98920.75;15279743;19;20031;-52
2022/11/02 23:13:21;;;;;;;5.28;1.67;;;;;;;5.98;100.00;98916.94;15273486;19;20042;-51
2022/11/02 23:41:27;;;;;;;5.63;1.65;;;;;;;5.62;100.00;98892.97;15274025;19;20031;-57
2022/11/02 23:46:53;;;;;;;4.93;1.50;;;;;;;5.51;100.00;98901.78;15272968;19;20018;-54
2022/11/02 23:57:59;;;;;;;6.13;1.70;;;;;;;5.38;100.00;98885.84;15274109;19;20018;-53
